Terminal Aerodrome Forecast
Issued by NWS

Home | Current Version | Previous Version | Text Only | Print | Product List | Glossary On
Versions: 1 2 3 4 5 6 7 8 9 10 11 12 13 14 15 16 17 18 19 20 21
000
FTUS43 KIND 302324
TAFHUF
TAF
KHUF 302324Z 3100/3124 VRB03KT P6SM VCTS SCT035CB BKN150
      TEMPO 3100/3101 5SM -TSRA BKN030CB
     FM310300 VRB03KT 6SM BR BKN200
     FM310900 00000KT 4SM BR BKN080
     FM311400 35004KT P6SM BKN035 PROB30 3115/3121 4SM -TSRA
      OVC020CB
     FM312100 35008KT P6SM BKN045=

USA.gov is the U.S. government's official web portal to all federal, state and local government web resources and services.